createdAt,value
2023-04-29T00:01:15.955Z,82
2023-04-29T00:04:15.901Z,82
2023-04-29T00:07:15.726Z,82
2023-04-29T00:10:15.711Z,82
2023-04-29T00:13:15.716Z,82
2023-04-29T00:16:15.725Z,82
2023-04-29T00:19:15.712Z,82
2023-04-29T00:22:15.719Z,82
2023-04-29T00:25:15.708Z,82
2023-04-29T00:28:15.721Z,82
2023-04-29T00:31:15.812Z,82
2023-04-29T00:34:15.735Z,82
2023-04-29T00:37:15.713Z,82
2023-04-29T00:40:15.698Z,82
2023-04-29T00:43:15.714Z,82
2023-04-29T00:46:15.722Z,82
2023-04-29T00:49:15.720Z,82
2023-04-29T00:52:15.702Z,82
2023-04-29T00:55:15.695Z,82
2023-04-29T00:58:15.683Z,82
2023-04-29T01:01:15.761Z,82
2023-04-29T01:04:15.755Z,82
2023-04-29T01:07:15.695Z,82
2023-04-29T01:10:15.716Z,82
2023-04-29T01:13:15.686Z,82
2023-04-29T01:16:15.713Z,82
2023-04-29T01:19:15.687Z,82
2023-04-29T01:22:15.681Z,82
2023-04-29T01:25:15.685Z,82
2023-04-29T01:28:15.711Z,83
2023-04-29T01:31:16.035Z,83
2023-04-29T01:34:15.676Z,83
2023-04-29T01:37:15.672Z,83
2023-04-29T01:40:15.687Z,83
2023-04-29T01:43:15.669Z,83
2023-04-29T01:46:15.689Z,83
2023-04-29T01:49:15.677Z,83
2023-04-29T01:52:15.668Z,83
2023-04-29T01:55:15.678Z,83
2023-04-29T01:58:15.659Z,83
2023-04-29T02:01:15.744Z,83
2023-04-29T02:07:15.667Z,83
2023-04-29T02:10:15.660Z,83
2023-04-29T02:13:15.657Z,83
2023-04-29T02:16:15.978Z,82
2023-04-29T02:19:15.652Z,82
2023-04-29T02:22:15.667Z,82
2023-04-29T02:25:15.660Z,82
2023-04-29T02:28:15.655Z,82
2023-04-29T02:31:15.673Z,82
2023-04-29T02:34:15.668Z,82
2023-04-29T02:37:15.653Z,82
2023-04-29T02:40:15.653Z,82
2023-04-29T02:43:15.646Z,82
2023-04-29T02:46:15.685Z,82
2023-04-29T02:49:15.646Z,82
2023-04-29T02:52:15.650Z,82
2023-04-29T02:55:15.650Z,82
2023-04-29T02:58:15.647Z,82
2023-04-29T03:01:15.711Z,82
2023-04-29T03:04:15.787Z,82
2023-04-29T03:07:15.642Z,82
2023-04-29T03:10:15.641Z,82
2023-04-29T03:13:15.634Z,82
2023-04-29T03:16:15.952Z,82
2023-04-29T03:19:15.636Z,82
2023-04-29T03:22:15.636Z,82
2023-04-29T03:25:15.625Z,82
2023-04-29T03:28:15.626Z,82
2023-04-29T03:31:15.683Z,82
2023-04-29T03:34:15.628Z,82
2023-04-29T03:37:15.619Z,82
2023-04-29T03:40:15.619Z,82
2023-04-29T03:43:15.618Z,82
2023-04-29T03:46:15.661Z,82
2023-04-29T03:49:15.614Z,82
2023-04-29T03:52:15.625Z,82
2023-04-29T03:55:15.622Z,82
2023-04-29T03:58:15.619Z,82
2023-04-29T04:01:15.619Z,82
2023-04-29T04:04:15.763Z,82
2023-04-29T04:07:15.625Z,82
2023-04-29T04:10:15.606Z,82
2023-04-29T04:13:15.610Z,82
2023-04-29T04:16:15.676Z,82
2023-04-29T04:19:15.613Z,82
2023-04-29T04:22:15.611Z,82
2023-04-29T04:25:15.633Z,82
2023-04-29T04:28:15.606Z,82
2023-04-29T04:31:15.672Z,82
2023-04-29T04:37:15.603Z,82
2023-04-29T04:40:15.637Z,82
2023-04-29T04:43:15.619Z,82
2023-04-29T04:46:15.685Z,82
2023-04-29T04:49:15.623Z,82
2023-04-29T04:52:15.616Z,82
2023-04-29T04:55:15.627Z,82
2023-04-29T04:58:15.612Z,82
2023-04-29T05:01:15.718Z,82
2023-04-29T05:04:15.700Z,82
2023-04-29T05:07:15.624Z,82
2023-04-29T05:10:15.608Z,82
2023-04-29T05:13:15.607Z,82
2023-04-29T05:16:15.655Z,82
2023-04-29T05:19:15.605Z,82
2023-04-29T05:22:15.609Z,82
2023-04-29T05:25:15.610Z,82
2023-04-29T05:28:15.600Z,82
2023-04-29T05:31:15.646Z,81
2023-04-29T05:34:15.602Z,81
2023-04-29T05:37:15.601Z,81
2023-04-29T05:40:15.634Z,81
2023-04-29T05:43:15.605Z,81
2023-04-29T05:46:15.642Z,81
2023-04-29T05:49:15.613Z,81
2023-04-29T05:52:15.594Z,81
2023-04-29T05:55:15.609Z,81
2023-04-29T05:58:15.600Z,81
2023-04-29T06:01:15.592Z,81
2023-04-29T06:07:15.829Z,80
2023-04-29T06:10:15.613Z,80
2023-04-29T06:13:15.645Z,80
2023-04-29T06:19:15.609Z,79
2023-04-29T06:22:15.606Z,79
2023-04-29T06:25:15.602Z,79
2023-04-29T06:28:15.588Z,79
2023-04-29T06:31:15.630Z,79
2023-04-29T06:34:15.607Z,78
2023-04-29T06:37:15.610Z,78
2023-04-29T06:40:15.607Z,78
2023-04-29T06:43:15.586Z,78
2023-04-29T06:46:15.645Z,77
2023-04-29T06:49:15.608Z,77
2023-04-29T06:52:15.573Z,77
2023-04-29T06:55:15.604Z,77
2023-04-29T06:58:15.575Z,77
2023-04-29T07:01:15.605Z,77
2023-04-29T07:04:15.606Z,76
2023-04-29T07:07:15.576Z,76
2023-04-29T07:10:15.586Z,76
2023-04-29T07:13:15.593Z,76
2023-04-29T07:16:15.591Z,76
2023-04-29T07:19:15.580Z,76
2023-04-29T07:22:15.587Z,76
2023-04-29T07:25:15.596Z,76
2023-04-29T07:28:15.636Z,76
2023-04-29T07:31:15.660Z,76
2023-04-29T07:34:15.576Z,76
2023-04-29T07:37:15.590Z,76
2023-04-29T07:40:15.608Z,76
2023-04-29T07:43:15.588Z,76
2023-04-29T07:46:15.603Z,76
2023-04-29T07:49:15.585Z,76
2023-04-29T07:52:15.617Z,76
2023-04-29T07:55:15.624Z,76
2023-04-29T07:58:15.616Z,76
2023-04-29T08:01:15.621Z,76
2023-04-29T08:04:15.805Z,76
2023-04-29T08:07:15.606Z,76
2023-04-29T08:10:15.850Z,76
2023-04-29T08:13:15.597Z,76
2023-04-29T08:16:15.624Z,76
2023-04-29T08:19:15.613Z,76
2023-04-29T08:22:15.597Z,76
2023-04-29T08:25:15.611Z,76
2023-04-29T08:28:15.612Z,76
2023-04-29T08:31:15.620Z,76
2023-04-29T08:34:15.622Z,76
2023-04-29T08:37:16.984Z,76
2023-04-29T08:40:15.629Z,76
2023-04-29T08:43:15.604Z,76
2023-04-29T08:46:15.662Z,76
2023-04-29T08:49:15.610Z,76
2023-04-29T08:52:15.615Z,76
2023-04-29T08:55:15.625Z,76
2023-04-29T08:58:15.619Z,76
2023-04-29T09:04:15.632Z,76
2023-04-29T09:07:15.613Z,76
2023-04-29T09:10:15.626Z,76
2023-04-29T09:16:15.947Z,76
2023-04-29T09:25:15.628Z,76
2023-04-29T09:28:15.598Z,76
2023-04-29T09:31:15.810Z,76
2023-04-29T09:34:15.597Z,76
2023-04-29T09:37:15.603Z,76
2023-04-29T09:40:15.627Z,76
2023-04-29T09:43:15.597Z,75
2023-04-29T09:46:15.710Z,75
2023-04-29T09:49:15.652Z,75
2023-04-29T09:55:15.599Z,75
2023-04-29T09:58:15.584Z,75
2023-04-29T10:01:15.657Z,75
2023-04-29T10:04:15.617Z,75
2023-04-29T10:07:15.593Z,75
2023-04-29T10:10:15.583Z,75
2023-04-29T10:13:15.580Z,75
2023-04-29T10:16:15.762Z,75
2023-04-29T10:19:15.599Z,75
2023-04-29T10:22:15.581Z,75
2023-04-29T10:25:15.657Z,75
2023-04-29T10:28:15.591Z,75
2023-04-29T10:31:15.627Z,75
2023-04-29T10:34:15.575Z,75
2023-04-29T10:37:15.601Z,75
2023-04-29T10:40:15.633Z,75
2023-04-29T10:43:15.588Z,75
2023-04-29T10:46:15.662Z,75
2023-04-29T10:49:15.596Z,75
2023-04-29T10:52:15.622Z,75
2023-04-29T10:55:15.600Z,75
2023-04-29T10:58:15.586Z,75
2023-04-29T11:01:15.736Z,75
2023-04-29T11:04:15.610Z,74
2023-04-29T11:07:15.626Z,74
2023-04-29T11:10:15.611Z,74
2023-04-29T11:13:15.582Z,74
2023-04-29T11:16:15.857Z,74
2023-04-29T11:19:15.621Z,74
2023-04-29T11:22:15.602Z,74
2023-04-29T11:25:15.590Z,74
2023-04-29T11:28:15.577Z,74
2023-04-29T11:31:15.597Z,74
2023-04-29T11:34:15.581Z,74
2023-04-29T11:37:15.592Z,74
2023-04-29T11:40:15.610Z,74
2023-04-29T11:43:15.579Z,73
2023-04-29T11:46:15.595Z,73
2023-04-29T11:49:15.590Z,73
2023-04-29T11:52:15.573Z,73
2023-04-29T11:55:15.592Z,74
2023-04-29T11:58:15.564Z,73
2023-04-29T12:01:15.816Z,73
2023-04-29T12:04:15.705Z,73
2023-04-29T12:07:15.562Z,73
2023-04-29T12:13:15.567Z,73
2023-04-29T12:16:15.903Z,73
2023-04-29T12:19:15.565Z,73
2023-04-29T12:22:15.594Z,73
2023-04-29T12:25:15.568Z,73
2023-04-29T12:28:15.587Z,73
2023-04-29T12:31:15.896Z,73
2023-04-29T12:34:15.558Z,73
2023-04-29T12:37:15.564Z,73
2023-04-29T12:40:15.557Z,73
2023-04-29T12:43:15.578Z,73
2023-04-29T12:46:15.807Z,73
2023-04-29T12:49:15.590Z,72
2023-04-29T12:52:15.580Z,72
2023-04-29T12:55:15.578Z,73
2023-04-29T12:58:15.560Z,73
2023-04-29T13:01:18.347Z,73
2023-04-29T13:04:15.686Z,72
2023-04-29T13:07:15.565Z,72
2023-04-29T13:10:15.594Z,72
2023-04-29T13:13:15.603Z,72
2023-04-29T13:16:15.859Z,72
2023-04-29T13:22:15.589Z,72
2023-04-29T13:25:15.774Z,72
2023-04-29T13:28:15.562Z,72
2023-04-29T13:31:15.667Z,72
2023-04-29T13:34:15.609Z,72
2023-04-29T13:37:15.582Z,72
2023-04-29T13:40:20.305Z,72
2023-04-29T13:43:22.756Z,72
2023-04-29T13:46:15.663Z,72
2023-04-29T13:49:26.211Z,72
2023-04-29T13:53:01.416Z,72
2023-04-29T13:56:01.550Z,72
2023-04-29T13:58:48.720Z,72
2023-04-29T14:01:43.964Z,72
2023-04-29T14:04:15.652Z,72
2023-04-29T14:07:15.575Z,72
2023-04-29T14:13:15.572Z,72
2023-04-29T14:16:15.627Z,72
2023-04-29T14:19:15.948Z,72
2023-04-29T14:22:15.582Z,72
2023-04-29T14:25:15.594Z,72
2023-04-29T14:28:15.588Z,72
2023-04-29T14:31:15.865Z,72
2023-04-29T14:34:15.576Z,72
2023-04-29T14:37:15.575Z,72
2023-04-29T14:40:15.583Z,72
2023-04-29T14:43:15.581Z,72
2023-04-29T14:46:15.910Z,72
2023-04-29T14:49:15.580Z,72
2023-04-29T14:52:15.591Z,72
2023-04-29T14:55:15.600Z,72
2023-04-29T14:58:15.579Z,72
2023-04-29T15:01:15.757Z,72
2023-04-29T15:04:15.615Z,72
2023-04-29T15:07:15.574Z,72
2023-04-29T15:10:15.579Z,72
2023-04-29T15:13:15.579Z,72
2023-04-29T15:16:15.740Z,72
2023-04-29T15:19:15.597Z,72
2023-04-29T15:22:15.573Z,71
2023-04-29T15:25:15.589Z,71
2023-04-29T15:28:15.590Z,71
2023-04-29T15:31:15.607Z,71
2023-04-29T15:34:15.580Z,71
2023-04-29T15:37:15.578Z,71
2023-04-29T15:40:15.573Z,71
2023-04-29T15:43:15.563Z,71
2023-04-29T15:46:15.603Z,71
2023-04-29T15:49:15.625Z,71
2023-04-29T15:52:15.562Z,71
2023-04-29T15:55:16.637Z,72
2023-04-29T15:58:15.556Z,72
2023-04-29T16:01:15.578Z,72
2023-04-29T16:04:15.567Z,72
2023-04-29T16:07:15.569Z,72
2023-04-29T16:10:15.562Z,72
2023-04-29T16:13:15.557Z,72
2023-04-29T16:16:15.781Z,72
2023-04-29T16:19:15.575Z,72
2023-04-29T16:22:15.554Z,72
2023-04-29T16:25:15.546Z,72
2023-04-29T16:28:15.550Z,72
2023-04-29T16:31:15.796Z,72
2023-04-29T16:34:15.540Z,72
2023-04-29T16:37:15.536Z,72
2023-04-29T16:40:15.536Z,72
2023-04-29T16:43:15.535Z,72
2023-04-29T16:46:15.592Z,72
2023-04-29T16:49:15.531Z,72
2023-04-29T16:52:15.536Z,72
2023-04-29T16:55:15.526Z,72
2023-04-29T16:58:15.544Z,72
2023-04-29T17:01:15.584Z,72
2023-04-29T17:04:15.575Z,72
2023-04-29T17:07:15.533Z,72
2023-04-29T17:10:15.954Z,72
2023-04-29T17:13:15.536Z,72
2023-04-29T17:16:15.606Z,72
2023-04-29T17:19:15.528Z,72
2023-04-29T17:22:15.522Z,72
2023-04-29T17:25:15.551Z,72
2023-04-29T17:28:15.530Z,72
2023-04-29T17:31:15.746Z,72
2023-04-29T17:37:15.521Z,72
2023-04-29T17:40:15.533Z,72
2023-04-29T17:43:15.573Z,72
2023-04-29T17:46:15.588Z,72
2023-04-29T17:49:15.512Z,72
2023-04-29T17:52:15.518Z,72
2023-04-29T17:55:15.558Z,72
2023-04-29T17:58:15.514Z,72
2023-04-29T18:01:15.526Z,72
2023-04-29T18:04:15.523Z,72
2023-04-29T18:07:15.515Z,72
2023-04-29T18:10:15.521Z,72
2023-04-29T18:13:15.545Z,72
2023-04-29T18:16:15.568Z,72
2023-04-29T18:19:15.506Z,72
2023-04-29T18:22:15.513Z,72
2023-04-29T18:25:15.507Z,72
2023-04-29T18:31:15.551Z,72
2023-04-29T18:34:15.490Z,72
2023-04-29T18:37:15.507Z,72
2023-04-29T18:40:15.512Z,72
2023-04-29T18:43:15.509Z,72
2023-04-29T18:46:15.576Z,72
2023-04-29T18:49:15.500Z,72
2023-04-29T18:52:15.498Z,72
2023-04-29T18:55:15.495Z,72
2023-04-29T18:58:15.491Z,72
2023-04-29T19:01:15.621Z,72
2023-04-29T19:04:15.613Z,72
2023-04-29T19:07:15.484Z,72
2023-04-29T19:10:15.484Z,72
2023-04-29T19:13:15.482Z,72
2023-04-29T19:16:15.549Z,72
2023-04-29T19:19:15.485Z,72
2023-04-29T19:22:15.478Z,72
2023-04-29T19:25:15.558Z,72
2023-04-29T19:28:15.471Z,72
2023-04-29T19:31:15.479Z,72
2023-04-29T19:34:15.468Z,72
2023-04-29T19:37:15.469Z,72
2023-04-29T19:40:15.480Z,72
2023-04-29T19:43:15.471Z,72
2023-04-29T19:46:15.794Z,72
2023-04-29T19:49:15.495Z,73
2023-04-29T19:52:15.609Z,73
2023-04-29T19:55:15.552Z,73
2023-04-29T19:58:15.471Z,73
2023-04-29T20:01:15.537Z,73
2023-04-29T20:04:15.478Z,73
2023-04-29T20:07:15.475Z,73
2023-04-29T20:10:15.494Z,73
2023-04-29T20:13:15.476Z,73
2023-04-29T20:16:15.540Z,73
2023-04-29T20:19:15.466Z,73
2023-04-29T20:22:15.468Z,73
2023-04-29T20:25:15.479Z,73
2023-04-29T20:28:15.483Z,73
2023-04-29T20:31:15.696Z,73
2023-04-29T20:34:15.619Z,73
2023-04-29T20:37:15.466Z,73
2023-04-29T20:40:15.479Z,73
2023-04-29T20:43:15.465Z,73
2023-04-29T20:46:15.830Z,73
2023-04-29T20:49:15.461Z,73
2023-04-29T20:52:15.466Z,73
2023-04-29T20:55:15.457Z,73
2023-04-29T20:58:15.456Z,73
2023-04-29T21:01:15.800Z,73
2023-04-29T21:04:15.487Z,73
2023-04-29T21:07:15.462Z,73
2023-04-29T21:10:15.463Z,73
2023-04-29T21:13:15.449Z,73
2023-04-29T21:16:15.814Z,74
2023-04-29T21:19:15.463Z,74
2023-04-29T21:22:15.456Z,74
2023-04-29T21:25:15.454Z,74
2023-04-29T21:28:16.875Z,74
2023-04-29T21:31:15.530Z,74
2023-04-29T21:34:15.453Z,74
2023-04-29T21:37:15.444Z,74
2023-04-29T21:40:15.583Z,74
2023-04-29T21:43:15.563Z,74
2023-04-29T21:46:15.455Z,74
2023-04-29T21:49:15.456Z,74
2023-04-29T21:52:15.447Z,74
2023-04-29T21:55:15.446Z,74
2023-04-29T21:58:15.444Z,74
2023-04-29T22:01:15.815Z,74
2023-04-29T22:04:15.451Z,74
2023-04-29T22:07:15.455Z,74
2023-04-29T22:10:15.604Z,74
2023-04-29T22:16:15.471Z,74
2023-04-29T22:19:15.456Z,74
2023-04-29T22:22:15.471Z,74
2023-04-29T22:25:15.472Z,74
2023-04-29T22:28:15.435Z,74
2023-04-29T22:31:15.453Z,74
2023-04-29T22:34:15.669Z,74
2023-04-29T22:37:15.453Z,74
2023-04-29T22:40:15.450Z,74
2023-04-29T22:43:15.434Z,74
2023-04-29T22:46:15.479Z,74
2023-04-29T22:49:15.740Z,74
2023-04-29T22:52:15.636Z,74
2023-04-29T22:55:15.469Z,74
2023-04-29T22:58:15.452Z,74
2023-04-29T23:01:15.499Z,74
2023-04-29T23:04:15.449Z,74
2023-04-29T23:07:15.421Z,74
2023-04-29T23:10:15.434Z,74
2023-04-29T23:13:15.424Z,74
2023-04-29T23:16:15.444Z,74
2023-04-29T23:19:15.796Z,74
2023-04-29T23:22:15.419Z,74
2023-04-29T23:25:15.423Z,74
2023-04-29T23:28:15.423Z,75
2023-04-29T23:31:15.685Z,75
2023-04-29T23:34:15.426Z,75
2023-04-29T23:37:15.410Z,75
2023-04-29T23:40:15.421Z,75
2023-04-29T23:43:15.407Z,75
2023-04-29T23:46:15.626Z,75
2023-04-29T23:49:15.425Z,75
2023-04-29T23:52:15.402Z,75
2023-04-29T23:55:15.412Z,75
2023-04-29T23:58:15.405Z,75
